createdAt,value
2022-11-21T00:00:24.352Z,-2.32
2022-11-21T00:02:50.916Z,-2.26
2022-11-21T00:05:17.868Z,-2.16
2022-11-21T00:07:45.910Z,-2.17
2022-11-21T00:10:12.915Z,-2.22
2022-11-21T00:12:39.273Z,-2.34
2022-11-21T00:15:06.014Z,-2.36
2022-11-21T00:17:32.377Z,-2.40
2022-11-21T00:19:58.679Z,-2.38
2022-11-21T00:22:24.992Z,-2.45
2022-11-21T00:24:54.189Z,-2.49
2022-11-21T00:27:20.732Z,-2.51
2022-11-21T00:29:47.022Z,-2.54
2022-11-21T00:32:13.314Z,-2.55
2022-11-21T00:34:39.611Z,-2.61
2022-11-21T00:37:05.890Z,-2.61
2022-11-21T00:39:32.228Z,-2.70
2022-11-21T00:41:58.516Z,-2.73
2022-11-21T00:44:25.083Z,-2.74
2022-11-21T00:46:51.472Z,-2.75
2022-11-21T00:49:17.745Z,-2.83
2022-11-21T00:51:44.019Z,-2.80
2022-11-21T00:54:10.414Z,-2.77
2022-11-21T00:56:36.985Z,-2.78
2022-11-21T00:59:03.533Z,-2.79
2022-11-21T01:01:29.965Z,-2.79
2022-11-21T01:03:58.074Z,-2.87
2022-11-21T01:06:24.477Z,-2.95
2022-11-21T01:08:50.850Z,-2.96
2022-11-21T01:11:19.858Z,-3.03
2022-11-21T01:13:48.052Z,-3.09
2022-11-21T01:16:17.441Z,-3.03
2022-11-21T01:18:44.657Z,-3.13
2022-11-21T01:21:17.815Z,-3.09
2022-11-21T01:23:44.869Z,-3.02
2022-11-21T01:26:22.444Z,-2.94
2022-11-21T01:28:49.094Z,-2.89
2022-11-21T01:31:20.712Z,-2.90
2022-11-21T01:33:47.817Z,-2.83
2022-11-21T01:36:20.361Z,-2.90
2022-11-21T01:38:49.456Z,-2.98
2022-11-21T01:41:22.331Z,-3.01
2022-11-21T01:43:50.040Z,-2.92
2022-11-21T01:46:18.682Z,-2.84
2022-11-21T01:48:57.890Z,-2.77
2022-11-21T01:51:49.198Z,-2.66
2022-11-21T01:54:33.364Z,-2.64
2022-11-21T01:57:06.700Z,-2.63
2022-11-21T01:59:35.542Z,-2.65
2022-11-21T02:02:05.442Z,-2.62
2022-11-21T02:04:34.037Z,-2.63
2022-11-21T02:07:04.142Z,-2.69
2022-11-21T02:09:33.088Z,-2.68
2022-11-21T02:12:07.677Z,-2.67
2022-11-21T02:14:35.764Z,-2.73
2022-11-21T02:17:06.346Z,-2.68
2022-11-21T02:19:49.957Z,-2.63
2022-11-21T02:22:24.590Z,-2.66
2022-11-21T02:25:12.170Z,-2.64
2022-11-21T02:27:38.990Z,-2.63
2022-11-21T02:30:07.725Z,-2.65
2022-11-21T02:32:37.603Z,-2.63
2022-11-21T02:35:05.133Z,-2.62
2022-11-21T02:37:33.624Z,-2.73
2022-11-21T02:40:03.157Z,-2.67
2022-11-21T02:42:41.842Z,-2.67
2022-11-21T02:45:14.027Z,-2.68
2022-11-21T02:47:42.935Z,-2.68
2022-11-21T02:50:23.898Z,-2.69
2022-11-21T02:52:50.181Z,-2.67
2022-11-21T02:55:16.522Z,-2.58
2022-11-21T02:57:42.902Z,-2.63
2022-11-21T03:00:10.941Z,-2.62
2022-11-21T03:02:37.788Z,-2.66
2022-11-21T03:05:08.158Z,-2.66
2022-11-21T03:07:34.908Z,-2.75
2022-11-21T03:10:01.445Z,-2.77
2022-11-21T03:12:27.786Z,-2.80
2022-11-21T03:14:54.045Z,-2.76
2022-11-21T03:17:20.434Z,-2.79
2022-11-21T03:19:46.842Z,-2.77
2022-11-21T03:22:14.664Z,-2.73
2022-11-21T03:24:41.825Z,-2.73
2022-11-21T03:27:08.155Z,-2.83
2022-11-21T03:29:34.448Z,-2.83
2022-11-21T03:32:00.736Z,-2.80
2022-11-21T03:34:27.305Z,-2.83
2022-11-21T03:36:54.010Z,-2.85
2022-11-21T03:39:20.408Z,-2.91
2022-11-21T03:41:47.018Z,-2.93
2022-11-21T03:44:13.643Z,-2.96
2022-11-21T03:46:43.232Z,-2.93
2022-11-21T03:49:12.048Z,-2.91
2022-11-21T03:51:39.693Z,-2.96
2022-11-21T03:54:07.087Z,-2.93
2022-11-21T03:56:34.154Z,-2.95
2022-11-21T03:59:00.894Z,-3.03
2022-11-21T04:01:28.636Z,-3.11
2022-11-21T04:03:58.365Z,-3.05
2022-11-21T04:06:24.902Z,-3.08
2022-11-21T04:08:51.342Z,-3.21
2022-11-21T04:11:18.293Z,-3.26
2022-11-21T04:13:44.631Z,-3.25
2022-11-21T04:16:10.954Z,-3.21
2022-11-21T04:18:37.269Z,-3.29
2022-11-21T04:21:07.721Z,-3.36
2022-11-21T04:23:34.567Z,-3.44
2022-11-21T04:26:01.063Z,-3.40
2022-11-21T04:28:27.425Z,-3.47
2022-11-21T04:30:55.118Z,-3.50
2022-11-21T04:33:21.975Z,-3.50
2022-11-21T04:35:48.348Z,-3.47
2022-11-21T04:38:16.174Z,-3.53
2022-11-21T04:40:45.161Z,-3.54
2022-11-21T04:43:11.452Z,-3.52
2022-11-21T04:45:37.720Z,-3.51
2022-11-21T04:48:04.049Z,-3.52
2022-11-21T04:50:30.710Z,-3.51
2022-11-21T04:52:57.521Z,-3.54
2022-11-21T04:55:28.741Z,-3.55
2022-11-21T04:57:55.077Z,-3.53
2022-11-21T05:00:24.467Z,-3.49
2022-11-21T05:02:51.354Z,-3.47
2022-11-21T05:05:17.856Z,-3.45
2022-11-21T05:07:44.246Z,-3.44
2022-11-21T05:10:10.650Z,-3.36
2022-11-21T05:12:55.758Z,-3.47
2022-11-21T05:15:24.889Z,-3.48
2022-11-21T05:17:51.598Z,-3.54
2022-11-21T05:20:18.722Z,-3.54
2022-11-21T05:22:49.654Z,-3.54
2022-11-21T05:25:16.045Z,-3.55
2022-11-21T05:27:42.371Z,-3.55
2022-11-21T05:30:09.350Z,-3.55
2022-11-21T05:32:35.652Z,-3.62
2022-11-21T05:35:02.006Z,-3.65
2022-11-21T05:37:28.332Z,-3.67
2022-11-21T05:39:54.596Z,-3.68
2022-11-21T05:42:40.872Z,-3.65
2022-11-21T05:45:07.911Z,-3.63
2022-11-21T05:47:34.334Z,-3.56
2022-11-21T05:50:00.681Z,-3.62
2022-11-21T05:52:28.318Z,-3.66
2022-11-21T05:54:54.615Z,-3.68
2022-11-21T05:57:20.910Z,-3.72
2022-11-21T05:59:47.212Z,-3.74
2022-11-21T06:02:32.182Z,-3.67
2022-11-21T06:04:58.448Z,-3.67
2022-11-21T06:07:24.752Z,-3.62
2022-11-21T06:09:51.058Z,-3.64
2022-11-21T06:12:19.335Z,-3.66
2022-11-21T06:14:49.023Z,-3.64
2022-11-21T06:17:15.321Z,-3.64
2022-11-21T06:19:41.593Z,-3.62
2022-11-21T06:22:07.885Z,-3.64
2022-11-21T06:24:34.171Z,-3.71
2022-11-21T06:27:00.490Z,-3.72
2022-11-21T06:29:26.797Z,-3.74
2022-11-21T06:31:55.779Z,-3.76
2022-11-21T06:34:22.073Z,-3.74
2022-11-21T06:36:49.321Z,-3.75
2022-11-21T06:39:15.611Z,-3.71
2022-11-21T06:41:41.987Z,-3.75
2022-11-21T06:44:08.432Z,-3.71
2022-11-21T06:46:34.725Z,-3.76
2022-11-21T06:49:01.166Z,-3.72
2022-11-21T06:51:27.483Z,-3.78
2022-11-21T06:53:56.040Z,-3.71
2022-11-21T06:56:26.764Z,-3.72
2022-11-21T06:58:53.458Z,-3.67
2022-11-21T07:01:19.957Z,-3.62
2022-11-21T07:03:46.389Z,-3.69
2022-11-21T07:06:12.666Z,-3.68
2022-11-21T07:08:40.970Z,-3.68
2022-11-21T07:11:24.482Z,-3.62
2022-11-21T07:13:51.841Z,-3.51
2022-11-21T07:16:18.143Z,-3.48
2022-11-21T07:18:45.416Z,-3.48
2022-11-21T07:21:11.850Z,-3.46
2022-11-21T07:23:38.244Z,-3.57
2022-11-21T07:26:07.261Z,-3.52
2022-11-21T07:28:34.281Z,-3.42
2022-11-21T07:31:01.538Z,-3.46
2022-11-21T07:33:27.950Z,-3.42
2022-11-21T07:35:58.451Z,-3.43
2022-11-21T07:38:26.067Z,-3.40
2022-11-21T07:40:52.970Z,-3.31
2022-11-21T07:43:19.588Z,-3.32
2022-11-21T07:45:45.880Z,-3.27
2022-11-21T07:48:12.898Z,-3.21
2022-11-21T07:50:39.542Z,-3.24
2022-11-21T07:53:07.832Z,-3.18
2022-11-21T07:55:40.131Z,-3.20
2022-11-21T07:58:09.817Z,-3.19
2022-11-21T08:00:39.721Z,-3.13
2022-11-21T08:03:06.987Z,-3.09
2022-11-21T08:05:37.662Z,-3.04
2022-11-21T08:08:05.575Z,-3.12
2022-11-21T08:10:32.086Z,-3.11
2022-11-21T08:12:58.377Z,-3.13
2022-11-21T08:15:24.681Z,-3.19
2022-11-21T08:17:50.964Z,-3.11
2022-11-21T08:20:17.406Z,-3.10
2022-11-21T08:22:43.831Z,-3.07
2022-11-21T08:25:10.955Z,-3.00
2022-11-21T08:27:38.455Z,-3.01
2022-11-21T08:30:10.456Z,-3.01
2022-11-21T08:32:37.004Z,-2.92
2022-11-21T08:35:03.648Z,-2.88
2022-11-21T08:37:30.104Z,-2.76
2022-11-21T08:39:58.785Z,-2.71
2022-11-21T08:42:25.782Z,-2.67
2022-11-21T08:44:52.226Z,-2.59
2022-11-21T08:47:19.045Z,-2.68
2022-11-21T08:49:45.365Z,-2.66
2022-11-21T08:52:11.626Z,-2.65
2022-11-21T08:54:37.964Z,-2.56
2022-11-21T08:57:04.342Z,-2.56
2022-11-21T08:59:30.626Z,-2.55
2022-11-21T09:01:57.362Z,-2.52
2022-11-21T09:04:23.700Z,-2.42
2022-11-21T09:06:49.978Z,-2.47
2022-11-21T09:09:20.702Z,-2.44
2022-11-21T09:11:50.204Z,-2.41
2022-11-21T09:14:34.894Z,-2.43
2022-11-21T09:17:19.478Z,-2.42
2022-11-21T09:19:47.002Z,-2.55
2022-11-21T09:22:13.355Z,-2.50
2022-11-21T09:24:39.629Z,-2.63
2022-11-21T09:27:05.939Z,-2.51
2022-11-21T09:29:32.330Z,-2.47
2022-11-21T09:31:58.686Z,-2.43
2022-11-21T09:34:25.948Z,-2.42
2022-11-21T09:36:52.679Z,-2.55
2022-11-21T09:39:20.989Z,-2.45
2022-11-21T09:42:12.656Z,-2.33
2022-11-21T09:45:04.358Z,-2.28
2022-11-21T09:47:34.623Z,-2.22
2022-11-21T09:50:16.330Z,-2.25
2022-11-21T09:53:00.457Z,-2.23
2022-11-21T09:55:34.413Z,-2.19
2022-11-21T09:58:03.961Z,-2.17
2022-11-21T10:00:30.859Z,-2.14
2022-11-21T10:02:58.056Z,-2.26
2022-11-21T10:05:41.272Z,-2.38
2022-11-21T10:08:20.178Z,-2.36
2022-11-21T10:11:20.143Z,-2.35
2022-11-21T10:14:03.798Z,-2.33
2022-11-21T10:16:59.434Z,-2.32
2022-11-21T10:19:47.622Z,-2.17
2022-11-21T10:22:29.434Z,-2.11
2022-11-21T10:25:03.767Z,-2.09
2022-11-21T10:27:37.339Z,-2.06
2022-11-21T10:30:15.453Z,-2.09
2022-11-21T10:32:46.137Z,-2.07
2022-11-21T10:35:22.912Z,-1.93
2022-11-21T10:38:00.146Z,-1.91
2022-11-21T10:40:39.876Z,-1.88
2022-11-21T10:44:01.642Z,-1.76
2022-11-21T10:46:27.974Z,-1.67
2022-11-21T10:49:02.432Z,-1.59
2022-11-21T10:52:04.157Z,-1.48
2022-11-21T10:54:33.755Z,-1.38
2022-11-21T10:57:20.445Z,-1.43
2022-11-21T11:00:13.275Z,-1.32
2022-11-21T11:02:41.208Z,-1.29
2022-11-21T11:05:19.893Z,-1.14
2022-11-21T11:08:11.561Z,-1.06
2022-11-21T11:10:40.594Z,-1.02
2022-11-21T11:13:49.856Z,-1.05
2022-11-21T11:16:19.192Z,-0.85
2022-11-21T11:19:08.392Z,-0.71
2022-11-21T11:21:46.870Z,-0.71
2022-11-21T11:24:13.092Z,-0.64
2022-11-21T11:26:48.908Z,-0.56
2022-11-21T11:29:17.095Z,-0.60
2022-11-21T11:31:50.901Z,-0.59
2022-11-21T11:34:17.791Z,-0.58
2022-11-21T11:36:59.055Z,-0.54
2022-11-21T11:39:37.436Z,-0.67
2022-11-21T11:42:39.314Z,-0.69
2022-11-21T11:45:30.266Z,-0.74
2022-11-21T11:48:01.394Z,-0.72
2022-11-21T11:50:36.857Z,-0.58
2022-11-21T11:53:26.322Z,-0.52
2022-11-21T11:56:20.589Z,-0.57
2022-11-21T11:58:58.277Z,-0.59
2022-11-21T12:01:32.998Z,-0.54
2022-11-21T12:04:04.843Z,-0.55
2022-11-21T12:07:41.172Z,-0.48
2022-11-21T12:09:34.547Z,-0.43
2022-11-21T12:12:31.827Z,-0.35
2022-11-21T12:15:36.127Z,-0.27
2022-11-21T12:18:20.675Z,-0.23
2022-11-21T12:21:10.744Z,-0.19
2022-11-21T12:23:47.271Z,-0.08
2022-11-21T12:26:35.819Z,0.01
2022-11-21T12:29:37.222Z,0.06
2022-11-21T12:32:04.218Z,0.13
2022-11-21T12:34:47.008Z,0.23
2022-11-21T12:37:16.096Z,0.29
2022-11-21T12:40:19.888Z,0.38
2022-11-21T12:43:13.859Z,0.42
2022-11-21T12:45:49.040Z,0.47
2022-11-21T12:48:47.130Z,0.49
2022-11-21T12:51:58.924Z,0.44
2022-11-21T12:55:09.524Z,0.57
2022-11-21T12:57:50.558Z,0.60
2022-11-21T13:00:39.669Z,0.56
2022-11-21T13:03:38.884Z,0.64
2022-11-21T13:06:13.576Z,0.76
2022-11-21T13:08:41.409Z,0.73
2022-11-21T13:12:00.295Z,0.77
2022-11-21T13:14:53.474Z,0.80
2022-11-21T13:17:25.729Z,0.72
2022-11-21T13:20:06.856Z,0.68
2022-11-21T13:22:36.060Z,0.65
2022-11-21T13:25:40.354Z,0.60
2022-11-21T13:28:19.039Z,0.54
2022-11-21T13:30:51.506Z,0.45
2022-11-21T13:33:36.327Z,0.48
2022-11-21T13:36:31.890Z,0.51
2022-11-21T13:38:58.212Z,0.46
2022-11-21T13:41:52.394Z,0.43
2022-11-21T13:44:30.642Z,0.39
2022-11-21T13:47:09.736Z,0.34
2022-11-21T13:50:13.605Z,0.40
2022-11-21T13:53:21.386Z,0.33
2022-11-21T13:56:23.691Z,0.33
2022-11-21T13:59:14.173Z,0.23
2022-11-21T14:02:12.876Z,0.23
2022-11-21T14:04:54.286Z,0.23
2022-11-21T14:07:32.503Z,0.21
2022-11-21T14:10:05.898Z,0.22
2022-11-21T14:12:41.067Z,0.21
2022-11-21T14:15:20.278Z,0.22
2022-11-21T14:17:49.908Z,0.23
2022-11-21T14:20:26.622Z,0.20
2022-11-21T14:23:03.743Z,0.18
2022-11-21T14:25:41.517Z,0.20
2022-11-21T14:28:22.802Z,0.20
2022-11-21T14:30:58.131Z,0.18
2022-11-21T14:33:29.209Z,0.10
2022-11-21T14:36:17.112Z,0.06
2022-11-21T14:39:07.432Z,-0.01
2022-11-21T14:41:38.946Z,-0.13
2022-11-21T14:44:14.715Z,-0.13
2022-11-21T14:46:42.906Z,-0.17
2022-11-21T14:49:12.253Z,-0.17
2022-11-21T14:51:40.308Z,-0.27
2022-11-21T14:54:14.466Z,-0.28
2022-11-21T14:56:41.725Z,-0.25
2022-11-21T14:59:23.775Z,-0.27
2022-11-21T15:01:59.599Z,-0.37
2022-11-21T15:04:32.295Z,-0.42
2022-11-21T15:06:59.634Z,-0.50
2022-11-21T15:10:26.244Z,-0.50
2022-11-21T15:12:18.791Z,-0.55
2022-11-21T15:14:50.371Z,-0.55
2022-11-21T15:17:20.445Z,-0.57
2022-11-21T15:19:47.215Z,-0.71
2022-11-21T15:22:32.564Z,-0.74
2022-11-21T15:25:15.684Z,-0.77
2022-11-21T15:27:42.167Z,-0.74
2022-11-21T15:30:12.276Z,-0.79
2022-11-21T15:33:01.488Z,-0.92
2022-11-21T15:35:32.090Z,-0.88
2022-11-21T15:37:58.647Z,-0.81
2022-11-21T15:40:25.159Z,-0.90
2022-11-21T15:42:51.491Z,-0.95
2022-11-21T15:45:25.958Z,-0.98
2022-11-21T15:47:53.060Z,-1.02
2022-11-21T15:50:23.235Z,-1.01
2022-11-21T15:52:51.413Z,-1.05
2022-11-21T15:55:31.451Z,-1.05
2022-11-21T15:57:57.820Z,-1.13
2022-11-21T16:00:24.222Z,-1.18
2022-11-21T16:02:50.521Z,-1.15
2022-11-21T16:05:16.846Z,-1.18
2022-11-21T16:07:43.293Z,-1.22
2022-11-21T16:10:18.280Z,-1.23
2022-11-21T16:12:48.001Z,-1.28
2022-11-21T16:15:14.378Z,-1.35
2022-11-21T16:17:41.537Z,-1.33
2022-11-21T16:20:08.235Z,-1.31
2022-11-21T16:22:34.530Z,-1.26
2022-11-21T16:25:00.827Z,-1.25
2022-11-21T16:27:27.655Z,-1.27
2022-11-21T16:29:53.935Z,-1.36
2022-11-21T16:32:20.193Z,-1.31
2022-11-21T16:34:47.083Z,-1.26
2022-11-21T16:37:14.288Z,-1.31
2022-11-21T16:39:41.720Z,-1.34
2022-11-21T16:42:10.881Z,-1.46
2022-11-21T16:44:37.224Z,-1.36
2022-11-21T16:47:08.132Z,-1.47
2022-11-21T16:49:35.469Z,-1.58
2022-11-21T16:52:02.023Z,-1.61
2022-11-21T16:54:28.317Z,-1.69
2022-11-21T16:56:54.597Z,-1.71
2022-11-21T16:59:20.875Z,-1.74
2022-11-21T17:01:47.442Z,-1.81
2022-11-21T17:04:29.127Z,-1.75
2022-11-21T17:06:55.608Z,-1.86
2022-11-21T17:09:21.902Z,-1.96
2022-11-21T17:11:48.190Z,-1.99
2022-11-21T17:14:14.534Z,-1.92
2022-11-21T17:16:41.561Z,-1.83
2022-11-21T17:19:11.857Z,-1.86
2022-11-21T17:21:38.163Z,-1.89
2022-11-21T17:24:04.631Z,-1.87
2022-11-21T17:26:30.927Z,-1.87
2022-11-21T17:28:59.641Z,-1.88
2022-11-21T17:31:26.779Z,-1.87
2022-11-21T17:33:55.265Z,-1.82
2022-11-21T17:36:23.661Z,-1.85
2022-11-21T17:38:51.457Z,-1.92
2022-11-21T17:41:19.228Z,-1.97
2022-11-21T17:43:47.251Z,-1.90
2022-11-21T17:46:18.286Z,-1.88
2022-11-21T17:48:51.297Z,-2.05
2022-11-21T17:51:24.019Z,-2.12
2022-11-21T17:53:51.292Z,-2.08
2022-11-21T17:56:19.914Z,-2.10
2022-11-21T17:58:47.234Z,-2.09
2022-11-21T18:01:18.763Z,-2.09
2022-11-21T18:03:47.072Z,-2.16
2022-11-21T18:06:15.630Z,-2.16
2022-11-21T18:08:44.189Z,-2.08
2022-11-21T18:11:13.259Z,-2.10
2022-11-21T18:13:39.764Z,-2.14
2022-11-21T18:16:09.512Z,-2.19
2022-11-21T18:18:36.742Z,-2.22
2022-11-21T18:21:12.143Z,-2.27
2022-11-21T18:23:38.946Z,-2.27
2022-11-21T18:26:07.578Z,-2.22
2022-11-21T18:28:34.297Z,-2.25
2022-11-21T18:31:09.118Z,-2.33
2022-11-21T18:33:36.617Z,-2.33
2022-11-21T18:36:04.975Z,-2.35
2022-11-21T18:38:48.169Z,-2.50
2022-11-21T18:41:19.210Z,-2.49
2022-11-21T18:43:50.824Z,-2.44
2022-11-21T18:46:17.483Z,-2.42
2022-11-21T18:49:08.821Z,-2.50
2022-11-21T18:51:31.610Z,-2.47
2022-11-21T18:54:07.653Z,-2.54
2022-11-21T18:56:35.533Z,-2.54
2022-11-21T18:59:03.209Z,-2.46
2022-11-21T19:01:31.509Z,-2.47
2022-11-21T19:03:58.426Z,-2.50
2022-11-21T19:06:26.716Z,-2.49
2022-11-21T19:08:55.543Z,-2.52
2022-11-21T19:11:26.839Z,-2.62
2022-11-21T19:13:54.895Z,-2.59
2022-11-21T19:16:24.650Z,-2.60
2022-11-21T19:19:18.722Z,-2.60
2022-11-21T19:21:39.584Z,-2.63
2022-11-21T19:24:07.193Z,-2.60
2022-11-21T19:26:33.540Z,-2.70
2022-11-21T19:28:59.886Z,-2.65
2022-11-21T19:31:26.251Z,-2.71
2022-11-21T19:33:52.762Z,-2.78
2022-11-21T19:36:21.492Z,-2.77
2022-11-21T19:38:50.868Z,-2.74
2022-11-21T19:41:20.628Z,-2.64
2022-11-21T19:43:54.541Z,-2.73
2022-11-21T19:46:26.491Z,-2.76
2022-11-21T19:48:55.203Z,-2.70
2022-11-21T19:51:33.244Z,-2.66
2022-11-21T19:54:01.757Z,-2.72
2022-11-21T19:56:28.034Z,-2.78
2022-11-21T19:58:56.203Z,-2.74
2022-11-21T20:01:25.375Z,-2.85
2022-11-21T20:03:55.002Z,-2.91
2022-11-21T20:06:23.805Z,-2.94
2022-11-21T20:08:53.867Z,-2.85
2022-11-21T20:11:21.365Z,-2.87
2022-11-21T20:13:49.108Z,-2.85
2022-11-21T20:16:24.503Z,-2.89
2022-11-21T20:18:52.295Z,-2.92
2022-11-21T20:21:19.432Z,-2.82
2022-11-21T20:23:46.362Z,-2.88
2022-11-21T20:26:13.945Z,-2.99
2022-11-21T20:28:40.734Z,-2.94
2022-11-21T20:31:10.923Z,-2.85
2022-11-21T20:33:39.609Z,-2.94
2022-11-21T20:36:08.440Z,-2.90
2022-11-21T20:38:35.825Z,-2.96
2022-11-21T20:41:02.715Z,-2.99
2022-11-21T20:43:52.645Z,-2.97
2022-11-21T20:46:20.492Z,-2.98
2022-11-21T20:48:47.449Z,-2.97
2022-11-21T20:52:49.835Z,-2.91
2022-11-21T20:54:03.718Z,-2.93
2022-11-21T20:56:35.129Z,-3.01
2022-11-21T20:59:01.741Z,-3.02
2022-11-21T21:01:28.486Z,-3.00
2022-11-21T21:03:55.018Z,-2.91
2022-11-21T21:06:23.864Z,-3.02
2022-11-21T21:08:51.533Z,-3.02
2022-11-21T21:11:49.961Z,-3.03
2022-11-21T21:14:07.413Z,-3.06
2022-11-21T21:16:34.365Z,-3.07
2022-11-21T21:19:00.848Z,-3.13
2022-11-21T21:21:30.457Z,-3.05
2022-11-21T21:23:59.906Z,-3.16
2022-11-21T21:26:28.924Z,-3.12
2022-11-21T21:28:56.634Z,-3.08
2022-11-21T21:31:23.818Z,-3.05
2022-11-21T21:33:50.302Z,-3.02
2022-11-21T21:36:19.333Z,-3.07
2022-11-21T21:38:50.337Z,-3.18
2022-11-21T21:41:16.954Z,-3.15
2022-11-21T21:43:43.235Z,-3.23
2022-11-21T21:46:12.177Z,-3.21
2022-11-21T21:48:39.101Z,-3.22
2022-11-21T21:51:17.110Z,-3.19
2022-11-21T21:53:44.518Z,-3.25
2022-11-21T21:56:11.625Z,-3.19
2022-11-21T21:58:40.479Z,-3.27
2022-11-21T22:01:10.026Z,-3.30
2022-11-21T22:03:36.544Z,-3.24
2022-11-21T22:06:05.271Z,-3.23
2022-11-21T22:08:33.915Z,-3.26
2022-11-21T22:11:14.859Z,-3.26
2022-11-21T22:13:43.121Z,-3.30
2022-11-21T22:16:11.174Z,-3.21
2022-11-21T22:18:38.254Z,-3.25
2022-11-21T22:21:19.410Z,-3.27
2022-11-21T22:24:09.778Z,-3.25
2022-11-21T22:26:32.833Z,-3.32
2022-11-21T22:28:59.108Z,-3.18
2022-11-21T22:31:25.438Z,-3.11
2022-11-21T22:33:51.880Z,-3.09
2022-11-21T22:36:18.817Z,-3.12
2022-11-21T22:38:45.763Z,-3.07
2022-11-21T22:41:15.744Z,-3.14
2022-11-21T22:43:42.916Z,-3.14
2022-11-21T22:46:13.288Z,-3.12
2022-11-21T22:48:40.128Z,-3.10
2022-11-21T22:51:07.608Z,-2.99
2022-11-21T22:53:38.691Z,-3.00
2022-11-21T22:56:09.225Z,-2.98
2022-11-21T22:58:37.917Z,-2.92
2022-11-21T23:01:08.388Z,-2.93
2022-11-21T23:03:35.728Z,-2.91
2022-11-21T23:06:04.171Z,-2.88
2022-11-21T23:08:31.361Z,-2.89
2022-11-21T23:11:12.764Z,-2.94
2022-11-21T23:13:42.595Z,-2.92
2022-11-21T23:16:10.370Z,-2.93
2022-11-21T23:18:36.798Z,-2.90
2022-11-21T23:21:03.537Z,-2.84
2022-11-21T23:23:30.084Z,-2.82
2022-11-21T23:25:56.451Z,-2.89
2022-11-21T23:28:23.061Z,-2.89
2022-11-21T23:30:50.125Z,-2.91
2022-11-21T23:33:19.306Z,-2.89
2022-11-21T23:35:46.622Z,-2.90
2022-11-21T23:38:14.406Z,-2.87
2022-11-21T23:40:41.065Z,-2.87
2022-11-21T23:43:07.463Z,-2.86
2022-11-21T23:45:33.924Z,-2.84
2022-11-21T23:48:00.250Z,-2.83
2022-11-21T23:50:26.563Z,-2.83
2022-11-21T23:52:53.020Z,-2.78
2022-11-21T23:55:19.402Z,-2.81
2022-11-21T23:57:47.134Z,-2.78
